createdAt,value
2018-03-01T00:00:19.508Z,0
2018-03-01T00:00:59.910Z,0
2018-03-01T00:01:40.411Z,0
2018-03-01T00:02:21.112Z,0
2018-03-01T00:03:01.609Z,0
2018-03-01T00:03:41.930Z,0
2018-03-01T00:04:22.506Z,0
2018-03-01T00:05:02.680Z,0
2018-03-01T00:05:43.094Z,0
2018-03-01T00:06:24.644Z,0
2018-03-01T00:07:05.160Z,0
2018-03-01T00:07:45.601Z,0
2018-03-01T00:08:26.053Z,0
2018-03-01T00:09:06.882Z,0
2018-03-01T00:09:47.208Z,0
2018-03-01T00:10:27.670Z,0
2018-03-01T00:11:08.113Z,0
2018-03-01T00:11:48.702Z,0
2018-03-01T00:12:29.145Z,0
2018-03-01T00:13:09.917Z,0
2018-03-01T00:13:50.321Z,0
2018-03-01T00:14:30.798Z,0
2018-03-01T00:15:11.422Z,0
2018-03-01T00:15:51.786Z,0
2018-03-01T00:16:32.114Z,0
2018-03-01T00:17:12.552Z,0
2018-03-01T00:17:52.974Z,0
2018-03-01T00:18:33.812Z,0
2018-03-01T00:19:14.065Z,0
2018-03-01T00:19:54.618Z,0
2018-03-01T00:20:35.251Z,0
2018-03-01T00:21:15.603Z,0
2018-03-01T00:21:56.316Z,0
2018-03-01T00:22:37.610Z,0
2018-03-01T00:23:18.799Z,0
2018-03-01T00:23:59.254Z,0
2018-03-01T00:26:20.396Z,0
2018-03-01T00:27:07.704Z,0
2018-03-01T00:27:50.634Z,0
2018-03-01T00:28:37.689Z,0
2018-03-01T00:29:18.095Z,0
2018-03-01T00:29:58.496Z,0
2018-03-01T00:30:38.917Z,0
2018-03-01T00:31:26.005Z,0
2018-03-01T00:32:06.403Z,0
2018-03-01T00:32:53.417Z,0
2018-03-01T00:33:40.454Z,0
2018-03-01T00:34:27.518Z,0
2018-03-01T00:35:07.902Z,0
2018-03-01T00:35:48.247Z,0
2018-03-01T00:36:42.330Z,0
2018-03-01T00:37:22.980Z,0
2018-03-01T00:38:03.368Z,0
2018-03-01T00:38:43.751Z,0
2018-03-01T00:39:24.147Z,0
2018-03-01T00:40:04.497Z,0
2018-03-01T00:40:44.918Z,0
2018-03-01T00:41:25.352Z,0
2018-03-01T00:42:05.710Z,0
2018-03-01T00:42:46.092Z,0
2018-03-01T00:43:31.902Z,0
2018-03-01T00:44:12.324Z,0
2018-03-01T00:44:52.692Z,0
2018-03-01T00:45:33.088Z,0
2018-03-01T00:46:13.505Z,0
2018-03-01T00:46:53.878Z,0
2018-03-01T00:49:16.014Z,0
2018-03-01T00:51:36.061Z,0
2018-03-01T00:52:27.054Z,0
2018-03-01T00:53:08.439Z,0
2018-03-01T00:53:48.816Z,0
2018-03-01T00:54:29.222Z,0
2018-03-01T00:55:09.604Z,0
2018-03-01T00:56:06.604Z,0
2018-03-01T00:58:47.221Z,0
2018-03-01T00:59:38.196Z,0
2018-03-01T01:00:17.719Z,0
2018-03-01T01:00:58.108Z,0
2018-03-01T01:01:38.665Z,0
2018-03-01T01:02:35.363Z,0
2018-03-01T01:03:25.341Z,0
2018-03-01T01:04:23.436Z,0
2018-03-01T01:05:06.377Z,0
2018-03-01T01:05:49.530Z,0
2018-03-01T01:08:04.220Z,0
2018-03-01T01:08:50.226Z,0
2018-03-01T01:09:33.367Z,0
2018-03-01T01:10:13.729Z,0
2018-03-01T01:12:58.392Z,0
2018-03-01T01:13:38.788Z,0
2018-03-01T01:14:28.828Z,0
2018-03-01T01:15:12.294Z,0
2018-03-01T01:15:55.511Z,0
2018-03-01T01:16:35.927Z,0
2018-03-01T01:17:31.505Z,0
2018-03-01T01:18:14.517Z,0
2018-03-01T01:18:54.912Z,0
2018-03-01T01:19:41.899Z,0
2018-03-01T01:20:22.317Z,0
2018-03-01T01:21:02.641Z,0
2018-03-01T01:21:43.090Z,0
2018-03-01T01:22:29.252Z,0
2018-03-01T01:23:24.444Z,0
2018-03-01T01:24:19.430Z,0
2018-03-01T01:25:06.394Z,0
2018-03-01T01:27:28.104Z,0
2018-03-01T01:28:08.622Z,0
2018-03-01T01:28:49.083Z,0
2018-03-01T01:29:30.439Z,0
2018-03-01T01:30:10.849Z,0
2018-03-01T01:30:51.327Z,0
2018-03-01T01:31:32.462Z,0
2018-03-01T01:32:12.859Z,0
2018-03-01T01:32:53.484Z,0
2018-03-01T01:33:34.057Z,0
2018-03-01T01:34:16.377Z,0
2018-03-01T01:34:56.826Z,0
2018-03-01T01:35:37.190Z,0
2018-03-01T01:36:18.682Z,0
2018-03-01T01:36:59.003Z,0
2018-03-01T01:37:39.454Z,0
2018-03-01T01:38:21.908Z,0
2018-03-01T01:39:02.248Z,0
2018-03-01T01:39:42.676Z,0
2018-03-01T01:40:23.124Z,0
2018-03-01T01:41:03.577Z,0
2018-03-01T01:41:43.974Z,0
2018-03-01T01:42:24.346Z,0
2018-03-01T01:43:05.007Z,0
2018-03-01T01:43:46.000Z,0
2018-03-01T01:44:26.491Z,0
2018-03-01T01:45:07.743Z,0
2018-03-01T01:45:48.203Z,0
2018-03-01T01:46:28.850Z,0
2018-03-01T01:47:09.251Z,0
2018-03-01T01:47:49.900Z,0
2018-03-01T01:48:30.256Z,0
2018-03-01T01:49:10.781Z,0
2018-03-01T01:49:51.159Z,0
2018-03-01T01:50:31.617Z,0
2018-03-01T01:51:12.108Z,0
2018-03-01T01:51:53.087Z,0
2018-03-01T01:52:35.893Z,0
2018-03-01T01:53:16.334Z,0
2018-03-01T01:53:57.874Z,0
2018-03-01T01:54:38.199Z,0
2018-03-01T01:55:18.601Z,0
2018-03-01T01:55:59.108Z,0
2018-03-01T01:56:39.523Z,0
2018-03-01T01:57:19.960Z,0
2018-03-01T01:58:00.410Z,0
2018-03-01T01:58:40.875Z,0
2018-03-01T01:59:22.135Z,0
2018-03-01T02:00:02.690Z,0
2018-03-01T02:00:44.024Z,0
2018-03-01T02:01:24.352Z,0
2018-03-01T02:02:04.740Z,0
2018-03-01T02:02:45.425Z,0
2018-03-01T02:03:25.575Z,0
2018-03-01T02:04:05.945Z,0
2018-03-01T02:04:46.319Z,0
2018-03-01T02:05:26.871Z,0
2018-03-01T02:06:07.225Z,0
2018-03-01T02:06:48.493Z,0
2018-03-01T02:07:29.633Z,0
2018-03-01T02:08:10.021Z,0
2018-03-01T02:08:51.735Z,0
2018-03-01T02:09:32.146Z,0
2018-03-01T02:10:12.595Z,0
2018-03-01T02:10:53.064Z,0
2018-03-01T02:11:34.545Z,0
2018-03-01T02:12:14.878Z,0
2018-03-01T02:12:55.390Z,0
2018-03-01T02:13:36.235Z,0
2018-03-01T02:14:16.487Z,0
2018-03-01T02:14:56.881Z,0
2018-03-01T02:15:37.218Z,0
2018-03-01T02:16:18.022Z,0
2018-03-01T02:16:58.460Z,0
2018-03-01T02:17:38.814Z,0
2018-03-01T02:18:19.431Z,0
2018-03-01T02:18:59.910Z,0
2018-03-01T02:19:40.304Z,0
2018-03-01T02:20:20.741Z,0
2018-03-01T02:21:01.181Z,0
2018-03-01T02:21:41.544Z,0
2018-03-01T02:22:21.970Z,0
2018-03-01T02:23:02.484Z,0
2018-03-01T02:23:42.859Z,0
2018-03-01T02:24:24.043Z,0
2018-03-01T02:25:04.397Z,0
2018-03-01T02:25:44.774Z,0
2018-03-01T02:26:25.104Z,0
2018-03-01T02:27:05.565Z,0
2018-03-01T02:27:45.924Z,0
2018-03-01T02:28:26.383Z,0
2018-03-01T02:29:06.787Z,0
2018-03-01T02:29:47.192Z,0
2018-03-01T02:30:27.643Z,0
2018-03-01T02:31:08.309Z,0
2018-03-01T02:31:48.707Z,0
2018-03-01T02:32:29.233Z,0
2018-03-01T02:33:09.570Z,0
2018-03-01T02:33:50.062Z,0
2018-03-01T02:34:30.493Z,0
2018-03-01T02:35:10.917Z,0
2018-03-01T02:35:51.285Z,0
2018-03-01T02:36:31.756Z,0
2018-03-01T02:37:12.245Z,0
2018-03-01T02:37:52.629Z,0
2018-03-01T02:38:33.262Z,0
2018-03-01T02:39:13.630Z,0
2018-03-01T02:39:54.055Z,0
2018-03-01T02:40:35.439Z,0
2018-03-01T02:41:15.844Z,0
2018-03-01T02:41:56.299Z,0
2018-03-01T02:42:37.471Z,0
2018-03-01T02:43:18.019Z,0
2018-03-01T02:43:58.386Z,0
2018-03-01T02:44:38.781Z,0
2018-03-01T02:45:20.870Z,0
2018-03-01T02:46:02.157Z,0
2018-03-01T02:46:42.524Z,0
2018-03-01T02:47:23.880Z,0
2018-03-01T02:48:04.386Z,0
2018-03-01T02:48:44.969Z,0
2018-03-01T02:49:25.306Z,0
2018-03-01T02:50:05.722Z,0
2018-03-01T02:50:46.105Z,0
2018-03-01T02:51:26.735Z,0
2018-03-01T02:52:07.155Z,0
2018-03-01T02:52:47.576Z,0
2018-03-01T02:53:28.096Z,0
2018-03-01T02:54:08.451Z,0
2018-03-01T02:54:49.657Z,0
2018-03-01T02:55:30.479Z,0
2018-03-01T02:56:10.876Z,0
2018-03-01T02:56:52.004Z,0
2018-03-01T02:57:33.190Z,0
2018-03-01T02:58:14.293Z,0
2018-03-01T02:58:54.721Z,0
2018-03-01T02:59:35.391Z,0
2018-03-01T03:00:15.634Z,0
2018-03-01T03:00:55.982Z,0
2018-03-01T03:01:36.326Z,0
2018-03-01T03:02:17.186Z,0
2018-03-01T03:02:58.262Z,0
2018-03-01T03:03:38.693Z,0
2018-03-01T03:04:19.414Z,0
2018-03-01T03:04:59.877Z,0
2018-03-01T03:05:40.882Z,0
2018-03-01T03:06:21.339Z,0
2018-03-01T03:07:01.643Z,0
2018-03-01T03:07:42.152Z,0
2018-03-01T03:08:22.486Z,0
2018-03-01T03:09:03.460Z,0
2018-03-01T03:09:43.922Z,0
2018-03-01T03:10:24.251Z,0
2018-03-01T03:11:04.668Z,0
2018-03-01T03:11:45.101Z,0
2018-03-01T03:12:25.489Z,0
2018-03-01T03:13:06.124Z,0
2018-03-01T03:13:46.306Z,0
2018-03-01T03:14:26.699Z,0
2018-03-01T03:15:07.273Z,0
2018-03-01T03:15:47.553Z,0
2018-03-01T03:16:28.112Z,0
2018-03-01T03:17:08.505Z,0
2018-03-01T03:17:48.850Z,0
2018-03-01T03:18:29.267Z,0
2018-03-01T03:19:09.725Z,0
2018-03-01T03:19:50.176Z,0
2018-03-01T03:20:31.452Z,0
2018-03-01T03:21:12.689Z,0
2018-03-01T03:21:53.984Z,0
2018-03-01T03:22:35.508Z,0
2018-03-01T03:23:15.807Z,0
2018-03-01T03:23:56.261Z,0
2018-03-01T03:24:36.613Z,0
2018-03-01T03:25:17.698Z,0
2018-03-01T03:25:58.263Z,0
2018-03-01T03:26:38.873Z,0
2018-03-01T03:27:19.183Z,0
2018-03-01T03:27:59.575Z,0
2018-03-01T03:28:39.984Z,0
2018-03-01T03:29:20.392Z,0
2018-03-01T03:30:00.970Z,0
2018-03-01T03:30:41.334Z,0
2018-03-01T03:31:21.692Z,0
2018-03-01T03:32:02.698Z,0
2018-03-01T03:32:43.084Z,0
2018-03-01T03:33:24.129Z,0
2018-03-01T03:34:05.093Z,0
2018-03-01T03:34:45.527Z,0
2018-03-01T03:35:25.986Z,0
2018-03-01T03:36:06.559Z,0
2018-03-01T03:36:47.003Z,0
2018-03-01T03:37:27.432Z,0
2018-03-01T03:38:07.833Z,0
2018-03-01T03:38:48.255Z,0
2018-03-01T03:39:28.943Z,0
2018-03-01T03:40:09.256Z,0
2018-03-01T03:40:49.706Z,0
2018-03-01T03:41:30.036Z,0
2018-03-01T03:42:10.487Z,0
2018-03-01T03:42:50.969Z,0
2018-03-01T03:43:31.263Z,0
2018-03-01T03:44:11.903Z,0
2018-03-01T03:44:52.173Z,0
2018-03-01T03:45:32.517Z,0
2018-03-01T03:46:12.912Z,0
2018-03-01T03:46:54.228Z,0
2018-03-01T03:47:34.603Z,0
2018-03-01T03:48:15.142Z,0
2018-03-01T03:48:55.517Z,0
2018-03-01T03:49:35.958Z,0
2018-03-01T03:50:16.598Z,0
2018-03-01T03:50:58.748Z,0
2018-03-01T03:51:39.527Z,0
2018-03-01T03:52:19.953Z,0
2018-03-01T03:53:00.341Z,0
2018-03-01T03:53:40.801Z,0
2018-03-01T03:54:21.234Z,0
2018-03-01T03:55:02.069Z,0
2018-03-01T03:55:42.092Z,0
2018-03-01T03:56:22.487Z,0
2018-03-01T03:57:02.944Z,0
2018-03-01T03:57:43.503Z,0
2018-03-01T03:58:24.028Z,0
2018-03-01T03:59:04.380Z,0
2018-03-01T03:59:44.892Z,0
2018-03-01T04:00:25.318Z,0
2018-03-01T04:01:05.982Z,0
2018-03-01T04:01:46.195Z,0
2018-03-01T04:02:26.928Z,0
2018-03-01T04:03:07.434Z,0
2018-03-01T04:03:47.798Z,0
2018-03-01T04:04:28.406Z,0
2018-03-01T04:05:08.747Z,0
2018-03-01T04:05:49.298Z,0
2018-03-01T04:06:30.189Z,0
2018-03-01T04:07:10.681Z,0
2018-03-01T04:49:17.729Z,0
2018-03-01T04:49:59.465Z,0
2018-03-01T04:50:40.670Z,0
2018-03-01T04:51:20.846Z,0
2018-03-01T04:52:01.382Z,0
2018-03-01T04:52:41.803Z,0
2018-03-01T04:53:22.373Z,0
2018-03-01T04:54:03.487Z,0
2018-03-01T04:54:43.573Z,0
2018-03-01T04:55:24.043Z,0
2018-03-01T04:56:04.531Z,0
2018-03-01T04:56:45.135Z,0
2018-03-01T04:57:25.999Z,0
2018-03-01T04:58:06.354Z,0
2018-03-01T04:58:46.767Z,0
2018-03-01T04:59:27.256Z,0
2018-03-01T05:00:07.783Z,0
2018-03-01T05:00:48.498Z,0
2018-03-01T05:01:28.616Z,0
2018-03-01T05:02:09.235Z,0
2018-03-01T05:02:49.570Z,0
2018-03-01T05:03:30.065Z,0
2018-03-01T05:04:10.581Z,0
2018-03-01T05:04:50.912Z,0
2018-03-01T05:05:31.447Z,0
2018-03-01T05:06:12.061Z,0
2018-03-01T05:06:52.443Z,0
2018-03-01T05:07:32.862Z,0
2018-03-01T05:08:13.352Z,0
2018-03-01T05:08:53.795Z,0
2018-03-01T05:09:34.331Z,0
2018-03-01T05:10:15.076Z,0
2018-03-01T05:10:55.474Z,0
2018-03-01T05:11:35.841Z,0
2018-03-01T05:12:16.407Z,0
2018-03-01T05:12:57.076Z,0
2018-03-01T05:13:38.416Z,0
2018-03-01T05:14:18.986Z,0
2018-03-01T05:14:59.491Z,0
2018-03-01T05:15:39.938Z,0
2018-03-01T05:16:20.649Z,0
2018-03-01T05:17:01.034Z,0
2018-03-01T05:17:41.957Z,0
2018-03-01T05:18:22.351Z,0
2018-03-01T05:19:02.819Z,0
2018-03-01T05:19:43.220Z,0
2018-03-01T05:20:23.788Z,0
2018-03-01T05:21:04.064Z,0
2018-03-01T05:21:45.588Z,0
2018-03-01T05:22:25.808Z,0
2018-03-01T05:23:06.352Z,0
2018-03-01T05:23:47.208Z,0
2018-03-01T05:24:27.677Z,0
2018-03-01T05:25:08.160Z,0
2018-03-01T05:25:48.600Z,0
2018-03-01T05:26:29.279Z,0
2018-03-01T05:27:09.979Z,0
2018-03-01T05:27:50.475Z,0
2018-03-01T05:28:30.939Z,0
2018-03-01T05:29:11.533Z,0
2018-03-01T05:29:52.222Z,0
2018-03-01T05:30:32.654Z,0
2018-03-01T05:31:13.933Z,0
2018-03-01T05:31:53.992Z,0
2018-03-01T05:32:34.608Z,0
2018-03-01T05:33:15.193Z,0
2018-03-01T05:33:56.025Z,0
2018-03-01T05:34:36.496Z,0
2018-03-01T05:35:16.937Z,0
2018-03-01T05:35:57.284Z,0
2018-03-01T05:36:38.131Z,0
2018-03-01T05:37:19.028Z,0
2018-03-01T05:37:59.851Z,0
2018-03-01T05:38:40.285Z,0
2018-03-01T05:39:20.644Z,0
2018-03-01T05:40:01.960Z,0
2018-03-01T05:40:42.393Z,0
2018-03-01T05:41:23.165Z,0
2018-03-01T05:42:03.541Z,0
2018-03-01T05:42:44.379Z,0
2018-03-01T05:43:25.464Z,0
2018-03-01T05:44:07.503Z,0
2018-03-01T05:44:48.424Z,0
2018-03-01T05:45:28.910Z,0
2018-03-01T05:46:09.319Z,0
2018-03-01T05:46:49.768Z,0
2018-03-01T05:47:30.213Z,0
2018-03-01T05:48:11.264Z,0
2018-03-01T05:48:51.612Z,0
2018-03-01T05:49:31.778Z,0
2018-03-01T05:50:12.439Z,0
2018-03-01T05:50:53.172Z,0
2018-03-01T05:51:33.569Z,0
2018-03-01T05:52:13.914Z,0
2018-03-01T05:52:54.456Z,0
2018-03-01T05:53:34.955Z,0
2018-03-01T05:54:15.832Z,0
2018-03-01T05:54:56.489Z,0
2018-03-01T05:55:37.004Z,0
2018-03-01T05:56:17.274Z,0
2018-03-01T05:56:58.056Z,0
2018-03-01T05:57:39.465Z,0
2018-03-01T05:58:19.890Z,0
2018-03-01T05:59:00.835Z,0
2018-03-01T05:59:41.083Z,0
2018-03-01T06:00:21.760Z,0
2018-03-01T06:01:02.097Z,0
2018-03-01T06:01:44.595Z,0
2018-03-01T06:02:26.059Z,0
2018-03-01T06:03:06.533Z,0
2018-03-01T06:03:47.159Z,0
2018-03-01T06:04:27.496Z,0
2018-03-01T06:07:12.730Z,0
2018-03-01T06:07:53.429Z,0
2018-03-01T06:08:34.430Z,0
2018-03-01T06:09:14.985Z,0
2018-03-01T06:09:57.880Z,0
2018-03-01T06:10:38.265Z,0
2018-03-01T06:11:18.672Z,0
2018-03-01T06:11:59.010Z,0
2018-03-01T06:12:39.623Z,0
2018-03-01T06:13:20.085Z,0
2018-03-01T06:14:01.146Z,0
2018-03-01T06:14:42.608Z,0
2018-03-01T06:15:30.348Z,0
2018-03-01T06:16:10.405Z,0
2018-03-01T06:16:51.372Z,0
2018-03-01T06:19:31.109Z,0
2018-03-01T06:20:11.396Z,0
2018-03-01T06:20:51.871Z,0
2018-03-01T06:21:32.243Z,0
2018-03-01T06:22:12.555Z,0
2018-03-01T06:22:53.018Z,0
2018-03-01T06:23:33.487Z,0
2018-03-01T06:24:13.884Z,0
2018-03-01T06:24:54.212Z,0
2018-03-01T06:25:34.618Z,0
2018-03-01T06:26:15.061Z,0
2018-03-01T06:26:55.445Z,0
2018-03-01T06:27:35.849Z,0
2018-03-01T06:28:16.244Z,0
2018-03-01T06:28:56.521Z,0
2018-03-01T06:29:37.077Z,0
2018-03-01T06:30:19.381Z,0
2018-03-01T06:30:57.944Z,0
2018-03-01T06:31:38.429Z,0
2018-03-01T06:32:18.792Z,0
2018-03-01T06:32:59.171Z,0
2018-03-01T06:33:39.583Z,0
2018-03-01T06:34:19.972Z,0
2018-03-01T06:35:00.398Z,0
2018-03-01T06:44:31.863Z,0
2018-03-01T06:45:13.281Z,0
2018-03-01T06:45:53.726Z,0
2018-03-01T06:46:34.229Z,0
2018-03-01T06:47:14.550Z,0
2018-03-01T06:47:55.841Z,0
2018-03-01T06:48:36.657Z,0
2018-03-01T06:49:17.455Z,0
2018-03-01T06:49:59.112Z,0
2018-03-01T06:50:38.904Z,5
2018-03-01T06:51:19.664Z,5
2018-03-01T06:52:00.336Z,5
2018-03-01T06:52:40.633Z,5
2018-03-01T06:53:22.094Z,5
2018-03-01T06:54:02.751Z,5
2018-03-01T06:54:43.347Z,5
2018-03-01T06:55:24.895Z,5
2018-03-01T06:56:06.636Z,5
2018-03-01T06:56:46.801Z,5
2018-03-01T06:57:27.446Z,5
2018-03-01T06:58:07.854Z,5
2018-03-01T06:58:48.334Z,5
2018-03-01T06:59:28.699Z,5
2018-03-01T07:00:09.175Z,5
2018-03-01T07:00:49.549Z,5
2018-03-01T07:01:29.942Z,5
2018-03-01T07:02:10.489Z,5
2018-03-01T07:02:50.868Z,5
2018-03-01T07:03:31.412Z,5
2018-03-01T07:04:12.110Z,5
2018-03-01T07:04:52.552Z,5
2018-03-01T07:05:32.955Z,5
2018-03-01T07:06:13.384Z,5
2018-03-01T07:06:54.652Z,5
2018-03-01T07:07:34.444Z,5
2018-03-01T07:08:15.203Z,5
2018-03-01T07:08:56.342Z,5
2018-03-01T07:09:36.803Z,5
2018-03-01T07:12:25.842Z,5
2018-03-01T07:13:06.345Z,5
2018-03-01T07:13:47.641Z,5
2018-03-01T07:15:11.788Z,5
2018-03-01T07:16:15.790Z,5
2018-03-01T07:19:09.899Z,5
2018-03-01T07:19:49.859Z,10
2018-03-01T07:20:30.741Z,10
2018-03-01T07:21:11.504Z,10
2018-03-01T07:21:52.866Z,10
2018-03-01T07:22:34.516Z,10
2018-03-01T07:23:15.161Z,10
2018-03-01T07:23:55.515Z,10
2018-03-01T07:24:36.044Z,10
2018-03-01T07:25:16.623Z,10
2018-03-01T07:25:57.114Z,15
2018-03-01T07:26:37.502Z,15
2018-03-01T07:27:17.997Z,15
2018-03-01T07:27:58.589Z,15
2018-03-01T07:28:39.669Z,15
2018-03-01T07:29:20.241Z,15
2018-03-01T07:30:00.647Z,15
2018-03-01T07:30:41.110Z,15
2018-03-01T07:31:21.665Z,15
2018-03-01T07:32:02.200Z,15
2018-03-01T07:32:43.170Z,15
2018-03-01T07:33:23.755Z,15
2018-03-01T07:34:04.301Z,10
2018-03-01T07:34:44.794Z,10
2018-03-01T07:35:25.188Z,10
2018-03-01T07:36:05.608Z,10
2018-03-01T07:36:46.257Z,10
2018-03-01T07:37:26.767Z,10
2018-03-01T07:38:07.327Z,10
2018-03-01T07:38:47.652Z,10
2018-03-01T07:39:28.287Z,10
2018-03-01T07:40:08.556Z,10
2018-03-01T07:40:49.586Z,10
2018-03-01T07:41:29.931Z,15
2018-03-01T07:42:10.791Z,15
2018-03-01T07:42:51.174Z,15
2018-03-01T07:43:31.689Z,15
2018-03-01T07:44:11.981Z,15
2018-03-01T07:44:52.774Z,15
2018-03-01T07:45:33.660Z,15
2018-03-01T07:46:14.200Z,15
2018-03-01T07:46:54.433Z,15
2018-03-01T07:47:34.871Z,15
2018-03-01T07:48:15.430Z,15
2018-03-01T07:48:55.725Z,20
2018-03-01T07:49:36.283Z,20
2018-03-01T07:50:16.628Z,20
2018-03-01T07:50:57.469Z,20
2018-03-01T07:51:37.934Z,20
2018-03-01T08:05:30.340Z,25
2018-03-01T08:06:10.975Z,25
2018-03-01T08:06:57.339Z,25
2018-03-01T08:07:37.613Z,25
2018-03-01T08:08:19.227Z,25
2018-03-01T08:08:59.571Z,25
2018-03-01T08:09:40.012Z,25
2018-03-01T08:10:20.732Z,30
2018-03-01T08:11:01.680Z,30
2018-03-01T08:11:42.076Z,30
2018-03-01T08:12:22.573Z,30
2018-03-01T08:13:02.916Z,30
2018-03-01T08:13:43.456Z,30
2018-03-01T08:14:23.865Z,30
2018-03-01T08:15:04.613Z,35
2018-03-01T08:15:45.017Z,35
2018-03-01T08:16:25.429Z,35
2018-03-01T08:17:06.711Z,35
2018-03-01T08:17:47.187Z,35
2018-03-01T08:18:27.578Z,35
2018-03-01T08:19:09.255Z,40
2018-03-01T08:19:49.920Z,40
2018-03-01T08:20:30.731Z,45
2018-03-01T08:21:10.819Z,55
2018-03-01T08:21:51.409Z,60
2018-03-01T08:22:31.888Z,70
2018-03-01T08:23:12.468Z,70
2018-03-01T08:23:52.974Z,70
2018-03-01T08:24:33.395Z,70
2018-03-01T08:25:13.905Z,65
2018-03-01T08:25:54.469Z,65
2018-03-01T08:26:34.853Z,65
2018-03-01T08:27:16.086Z,65
2018-03-01T08:27:57.038Z,70
2018-03-01T08:28:38.474Z,75
2018-03-01T08:29:18.806Z,85
2018-03-01T08:30:00.166Z,85
2018-03-01T08:30:40.501Z,85
2018-03-01T08:31:21.120Z,85
2018-03-01T08:32:01.662Z,85
2018-03-01T08:32:42.588Z,80
2018-03-01T08:33:23.090Z,80
2018-03-01T08:34:03.691Z,85
2018-03-01T08:34:46.101Z,80
2018-03-01T08:35:26.460Z,75
2018-03-01T08:36:07.723Z,75
2018-03-01T08:36:48.304Z,75
2018-03-01T08:37:28.667Z,75
2018-03-01T08:38:09.157Z,75
2018-03-01T08:38:49.572Z,75
2018-03-01T08:39:30.727Z,70
2018-03-01T08:40:11.736Z,70
2018-03-01T08:40:52.526Z,65
2018-03-01T08:41:33.987Z,65
2018-03-01T08:42:13.686Z,60
2018-03-01T08:42:54.846Z,60
2018-03-01T08:43:35.315Z,65
2018-03-01T08:44:16.789Z,70
2018-03-01T08:44:58.559Z,75
2018-03-01T08:45:39.810Z,75
2018-03-01T08:46:20.316Z,70
2018-03-01T08:47:00.822Z,65
2018-03-01T08:47:41.822Z,65
2018-03-01T08:48:22.299Z,65
2018-03-01T08:49:02.745Z,60
2018-03-01T08:49:43.126Z,60
2018-03-01T08:50:23.850Z,60
2018-03-01T08:51:04.274Z,60
2018-03-01T08:51:45.513Z,60
2018-03-01T08:52:26.964Z,60
2018-03-01T08:55:11.820Z,60
2018-03-01T08:55:50.565Z,60
2018-03-01T08:56:31.660Z,65
2018-03-01T08:57:12.257Z,60
2018-03-01T08:57:59.219Z,60
2018-03-01T08:58:39.934Z,60
2018-03-01T08:59:20.393Z,60
2018-03-01T09:00:00.753Z,60
2018-03-01T09:00:41.297Z,60
2018-03-01T09:01:23.053Z,60
2018-03-01T09:02:03.693Z,60
2018-03-01T09:02:45.563Z,75
2018-03-01T09:03:26.593Z,70
2018-03-01T09:04:06.916Z,75
2018-03-01T09:04:47.968Z,80
2018-03-01T09:05:28.207Z,70
2018-03-01T09:06:09.306Z,75
2018-03-01T09:06:50.203Z,70
2018-03-01T09:07:30.654Z,70
2018-03-01T09:08:11.421Z,70
2018-03-01T09:08:51.775Z,70
2018-03-01T09:09:32.498Z,70
2018-03-01T09:10:12.862Z,70
2018-03-01T09:10:53.846Z,70
2018-03-01T09:11:33.924Z,65
2018-03-01T09:12:14.400Z,70
2018-03-01T09:12:56.093Z,70
2018-03-01T09:13:36.535Z,70
2018-03-01T09:14:17.026Z,70
2018-03-01T09:15:01.552Z,75
2018-03-01T09:15:41.103Z,75
2018-03-01T09:16:21.613Z,75
2018-03-01T09:17:02.973Z,70
2018-03-01T09:17:42.947Z,70
2018-03-01T09:18:23.545Z,75
2018-03-01T09:19:07.272Z,75
2018-03-01T09:19:47.843Z,75
2018-03-01T09:20:28.341Z,75
2018-03-01T09:21:08.962Z,75
2018-03-01T09:21:50.111Z,80
2018-03-01T09:22:31.561Z,75
2018-03-01T09:23:12.142Z,80
2018-03-01T09:23:52.536Z,80
2018-03-01T09:24:33.421Z,85
2018-03-01T09:25:14.699Z,80
2018-03-01T09:25:55.041Z,80
2018-03-01T09:26:36.279Z,85
2018-03-01T09:27:16.808Z,85
2018-03-01T09:27:57.265Z,80
2018-03-01T09:28:37.876Z,80
2018-03-01T09:29:18.719Z,80
2018-03-01T09:29:59.538Z,80
2018-03-01T09:30:39.974Z,80
2018-03-01T09:31:21.101Z,80
2018-03-01T09:32:01.561Z,80
2018-03-01T09:34:32.738Z,80
2018-03-01T09:45:23.558Z,80
2018-03-01T09:48:08.643Z,80
2018-03-01T09:48:49.029Z,80
2018-03-01T09:49:29.493Z,80
2018-03-01T09:50:09.953Z,80
2018-03-01T09:50:50.222Z,80
2018-03-01T09:51:30.770Z,80
2018-03-01T09:52:11.203Z,80
2018-03-01T09:52:51.760Z,80
2018-03-01T09:53:32.189Z,80
2018-03-01T09:54:12.632Z,80
2018-03-01T09:54:53.012Z,80
2018-03-01T09:55:33.396Z,75
2018-03-01T09:56:14.109Z,75
2018-03-01T09:56:54.595Z,75
2018-03-01T09:57:35.116Z,75
2018-03-01T09:58:15.517Z,70
2018-03-01T09:58:56.238Z,75
2018-03-01T09:59:36.675Z,70
2018-03-01T10:00:17.325Z,75
2018-03-01T10:00:57.863Z,70
2018-03-01T10:01:38.515Z,75
2018-03-01T10:02:18.863Z,75
2018-03-01T10:02:59.384Z,75
2018-03-01T10:03:39.882Z,75
2018-03-01T10:04:20.398Z,70
2018-03-01T10:05:00.730Z,75
2018-03-01T10:05:41.236Z,80
2018-03-01T10:06:21.715Z,75
2018-03-01T10:07:02.305Z,70
2018-03-01T10:07:42.808Z,70
2018-03-01T10:08:23.359Z,75
2018-03-01T10:09:03.864Z,70
2018-03-01T10:47:11.660Z,80
2018-03-01T10:47:58.107Z,80
2018-03-01T10:48:43.965Z,80
2018-03-01T10:49:24.325Z,80
2018-03-01T10:50:05.218Z,80
2018-03-01T10:50:45.764Z,80
2018-03-01T10:51:26.485Z,80
2018-03-01T10:52:07.628Z,80
2018-03-01T10:52:48.023Z,90
2018-03-01T10:53:28.560Z,90
2018-03-01T10:54:09.548Z,90
2018-03-01T10:54:50.350Z,85
2018-03-01T10:55:30.874Z,85
2018-03-01T10:56:11.241Z,80
2018-03-01T10:56:51.763Z,80
2018-03-01T10:57:32.155Z,80
2018-03-01T10:58:12.592Z,80
2018-03-01T10:58:52.975Z,85
2018-03-01T10:59:33.433Z,80
2018-03-01T11:00:13.914Z,80
2018-03-01T11:00:54.383Z,80
2018-03-01T11:01:34.916Z,80
2018-03-01T11:02:15.183Z,80
2018-03-01T11:02:55.671Z,80
2018-03-01T11:03:36.074Z,80
2018-03-01T11:04:16.519Z,80
2018-03-01T11:04:57.017Z,80
2018-03-01T11:05:37.988Z,80
2018-03-01T11:06:18.134Z,80
2018-03-01T11:07:00.544Z,80
2018-03-01T11:07:40.930Z,80
2018-03-01T11:08:21.325Z,75
2018-03-01T11:09:01.805Z,75
2018-03-01T11:09:42.451Z,75
2018-03-01T11:10:22.774Z,70
2018-03-01T11:11:03.595Z,70
2018-03-01T11:11:44.035Z,70
2018-03-01T11:12:24.437Z,70
2018-03-01T11:13:04.994Z,70
2018-03-01T11:13:45.319Z,65
2018-03-01T11:14:25.849Z,65
2018-03-01T11:15:06.319Z,65
2018-03-01T11:15:46.775Z,65
2018-03-01T11:16:27.287Z,65
2018-03-01T11:17:07.757Z,65
2018-03-01T11:17:48.437Z,65
2018-03-01T11:18:29.080Z,65
2018-03-01T11:19:09.670Z,60
2018-03-01T11:19:50.058Z,60
2018-03-01T11:20:30.532Z,60
2018-03-01T11:21:10.956Z,60
2018-03-01T11:21:51.344Z,60
2018-03-01T11:22:31.827Z,60
2018-03-01T11:23:12.224Z,60
2018-03-01T11:23:52.648Z,60
2018-03-01T11:24:33.056Z,60
2018-03-01T11:25:13.608Z,60
2018-03-01T11:25:53.865Z,60
2018-03-01T11:26:34.341Z,60
2018-03-01T11:27:14.927Z,60
2018-03-01T11:27:55.360Z,60
2018-03-01T11:28:35.908Z,60
2018-03-01T11:29:16.355Z,60
2018-03-01T11:29:56.859Z,60
2018-03-01T11:30:37.365Z,60
2018-03-01T11:31:17.767Z,55
2018-03-01T11:31:58.231Z,60
2018-03-01T11:32:38.952Z,55
2018-03-01T11:33:19.374Z,55
2018-03-01T11:33:59.791Z,55
2018-03-01T11:34:40.248Z,55
2018-03-01T11:35:20.771Z,55
2018-03-01T11:36:01.140Z,50
2018-03-01T11:36:41.720Z,50
2018-03-01T11:37:22.403Z,55
2018-03-01T11:38:04.016Z,55
2018-03-01T11:38:43.814Z,55
2018-03-01T11:39:24.272Z,55
2018-03-01T11:40:04.845Z,55
2018-03-01T11:40:46.378Z,55
2018-03-01T11:41:26.630Z,55
2018-03-01T11:42:06.850Z,55
2018-03-01T11:42:48.271Z,55
2018-03-01T11:43:28.034Z,55
2018-03-01T11:44:09.514Z,55
2018-03-01T11:44:49.239Z,55
2018-03-01T11:45:29.825Z,55
2018-03-01T11:46:10.468Z,55
2018-03-01T11:46:51.486Z,55
2018-03-01T11:47:31.954Z,55
2018-03-01T11:48:12.350Z,50
2018-03-01T11:48:52.940Z,55
2018-03-01T11:49:33.763Z,55
2018-03-01T11:50:14.118Z,55
2018-03-01T11:50:55.003Z,55
2018-03-01T11:51:35.388Z,55
2018-03-01T11:52:15.852Z,55
2018-03-01T11:52:56.336Z,55
2018-03-01T11:53:37.097Z,55
2018-03-01T11:54:17.593Z,55
2018-03-01T11:54:58.168Z,55
2018-03-01T11:55:38.666Z,55
2018-03-01T11:56:19.207Z,55
2018-03-01T11:57:00.234Z,55
2018-03-01T11:57:40.921Z,60
2018-03-01T11:58:21.535Z,55
2018-03-01T11:59:02.122Z,60
2018-03-01T11:59:43.037Z,55
2018-03-01T12:00:23.546Z,55
2018-03-01T12:01:03.920Z,60
2018-03-01T12:01:44.497Z,55
2018-03-01T12:02:24.921Z,60
2018-03-01T12:03:05.548Z,60
2018-03-01T12:03:46.102Z,60
2018-03-01T12:04:26.951Z,55
2018-03-01T12:05:08.459Z,55
2018-03-01T12:05:49.257Z,55
2018-03-01T12:06:30.792Z,55
2018-03-01T12:07:10.280Z,55
2018-03-01T12:07:51.811Z,55
2018-03-01T12:08:31.962Z,55
2018-03-01T12:09:12.783Z,55
2018-03-01T12:09:53.200Z,55
2018-03-01T12:10:38.355Z,55
2018-03-01T12:11:18.908Z,55
2018-03-01T12:11:58.526Z,55
2018-03-01T12:12:39.017Z,55
2018-03-01T12:13:19.706Z,55
2018-03-01T12:14:00.758Z,55
2018-03-01T12:14:41.125Z,55
2018-03-01T12:15:22.294Z,55